createdAt,value
2018-10-17T00:00:00.135Z,42.14
2018-10-17T00:02:26.123Z,42.25
2018-10-17T00:04:52.163Z,42.24
2018-10-17T00:07:18.174Z,42.31
2018-10-17T00:09:44.257Z,42.48
2018-10-17T00:12:10.254Z,43.12
2018-10-17T00:14:37.561Z,42.38
2018-10-17T00:17:04.494Z,42.61
2018-10-17T00:19:30.480Z,42.41
2018-10-17T00:21:56.486Z,42.63
2018-10-17T00:24:22.527Z,42.71
2018-10-17T00:26:48.574Z,42.69
2018-10-17T00:29:15.264Z,42.83
2018-10-17T00:31:41.257Z,42.54
2018-10-17T00:34:07.345Z,43.31
2018-10-17T00:36:33.374Z,43.92
2018-10-17T00:38:59.368Z,43.30
2018-10-17T00:43:57.630Z,42.94
2018-10-17T00:46:23.647Z,43.38
2018-10-17T00:48:49.706Z,42.97
2018-10-17T00:51:15.744Z,43.28
2018-10-17T00:53:41.754Z,43.39
2018-10-17T00:56:07.861Z,43.25
2018-10-17T00:58:33.892Z,43.55
2018-10-17T01:00:59.935Z,43.89
2018-10-17T01:03:25.995Z,44.24
2018-10-17T01:05:52.051Z,44.37
2018-10-17T01:08:18.068Z,44.15
2018-10-17T01:10:44.154Z,43.33
2018-10-17T01:13:10.219Z,43.94
2018-10-17T01:15:36.787Z,43.06
2018-10-17T01:18:03.101Z,43.15
2018-10-17T01:20:29.183Z,42.43
2018-10-17T01:22:55.305Z,42.59
2018-10-17T01:25:21.290Z,43.36
2018-10-17T01:27:47.312Z,43.59
2018-10-17T01:30:13.399Z,42.97
2018-10-17T01:32:39.414Z,43.29
2018-10-17T01:35:05.485Z,43.11
2018-10-17T01:37:31.526Z,43.36
2018-10-17T01:39:57.539Z,42.98
2018-10-17T01:42:24.354Z,42.97
2018-10-17T01:44:50.390Z,42.71
2018-10-17T01:47:16.841Z,43.50
2018-10-17T01:49:42.838Z,43.67
2018-10-17T01:52:08.879Z,42.84
2018-10-17T01:54:35.059Z,43.27
2018-10-17T01:57:01.150Z,42.73
2018-10-17T01:59:28.301Z,42.39
2018-10-17T02:01:54.530Z,43.58
2018-10-17T02:04:20.609Z,43.65
2018-10-17T02:06:46.635Z,43.69
2018-10-17T02:09:12.646Z,43.33
2018-10-17T02:11:38.742Z,43.25
2018-10-17T02:14:04.749Z,43.12
2018-10-17T02:19:02.471Z,43.35
2018-10-17T02:21:28.509Z,43.49
2018-10-17T02:23:54.525Z,43.67
2018-10-17T02:26:20.552Z,43.06
2018-10-17T02:28:46.681Z,43.26
2018-10-17T02:31:12.818Z,42.96
2018-10-17T02:33:38.776Z,43.68
2018-10-17T02:36:04.889Z,43.34
2018-10-17T02:38:30.876Z,44.03
2018-10-17T02:40:57.016Z,43.51
2018-10-17T02:43:23.478Z,43.91
2018-10-17T02:45:49.459Z,43.73
2018-10-17T02:48:15.507Z,43.96
2018-10-17T02:50:41.526Z,44.05
2018-10-17T02:53:07.594Z,44.03
2018-10-17T03:16:33.626Z,43.91
2018-10-17T03:29:04.862Z,44.33
2018-10-17T03:31:31.053Z,44.45
2018-10-17T03:33:57.018Z,44.52
2018-10-17T03:36:23.045Z,44.54
2018-10-17T03:38:49.858Z,43.92
2018-10-17T03:43:48.376Z,43.94
2018-10-17T03:46:14.411Z,43.70
2018-10-17T03:51:12.565Z,44.76
2018-10-17T03:53:38.606Z,44.19
2018-10-17T03:56:04.598Z,43.98
2018-10-17T03:58:30.625Z,44.13
2018-10-17T04:00:56.785Z,44.55
2018-10-17T04:03:22.882Z,44.14
2018-10-17T04:05:49.025Z,44.36
2018-10-17T04:08:15.150Z,44.29
2018-10-17T04:10:41.234Z,43.72
2018-10-17T04:13:07.383Z,43.85
2018-10-17T04:15:33.402Z,44.66
2018-10-17T04:17:59.531Z,43.72
2018-10-17T04:20:25.617Z,44.54
2018-10-17T04:22:51.670Z,44.07
2018-10-17T04:25:17.794Z,44.16
2018-10-17T04:27:43.838Z,44.14
2018-10-17T04:30:09.908Z,43.95
2018-10-17T04:32:35.979Z,43.87
2018-10-17T04:35:02.088Z,44.05
2018-10-17T04:37:28.130Z,43.77
2018-10-17T04:39:54.196Z,43.90
2018-10-17T04:42:20.291Z,43.69
2018-10-17T04:44:46.385Z,43.79
2018-10-17T04:47:12.470Z,44.46
2018-10-17T04:49:38.489Z,44.85
2018-10-17T04:52:04.612Z,44.62
2018-10-17T04:54:31.700Z,43.95
2018-10-17T04:56:57.802Z,44.40
2018-10-17T04:59:23.912Z,44.18
2018-10-17T05:01:49.959Z,44.38
2018-10-17T05:04:16.015Z,44.90
2018-10-17T05:06:42.111Z,44.29
2018-10-17T05:09:08.117Z,44.08
2018-10-17T05:11:34.246Z,44.03
2018-10-17T05:14:00.282Z,44.63
2018-10-17T05:16:26.398Z,44.20
2018-10-17T05:18:52.449Z,43.93
2018-10-17T05:21:18.498Z,43.69
2018-10-17T05:23:44.609Z,44.00
2018-10-17T05:26:11.686Z,43.56
2018-10-17T05:28:37.767Z,43.11
2018-10-17T05:31:03.806Z,43.75
2018-10-17T05:33:29.922Z,44.17
2018-10-17T05:35:55.992Z,44.25
2018-10-17T05:38:23.337Z,44.19
2018-10-17T05:40:49.411Z,44.09
2018-10-17T05:43:15.534Z,43.80
2018-10-17T05:45:41.551Z,43.94
2018-10-17T05:48:07.678Z,43.73
2018-10-17T05:50:33.784Z,44.04
2018-10-17T05:52:59.889Z,43.83
2018-10-17T05:55:25.956Z,44.36
2018-10-17T05:57:52.113Z,43.75
2018-10-17T06:00:18.231Z,44.24
2018-10-17T06:02:44.354Z,43.71
2018-10-17T06:05:10.586Z,43.59
2018-10-17T06:07:36.587Z,44.25
2018-10-17T06:10:02.705Z,44.10
2018-10-17T06:12:28.757Z,44.28
2018-10-17T06:14:54.813Z,43.40
2018-10-17T06:17:20.977Z,44.04
2018-10-17T06:19:47.015Z,42.92
2018-10-17T06:22:13.060Z,43.49
2018-10-17T06:24:39.078Z,43.19
2018-10-17T06:27:05.079Z,43.42
2018-10-17T06:29:31.134Z,43.08
2018-10-17T06:31:57.233Z,43.08
2018-10-17T06:34:23.402Z,43.34
2018-10-17T06:36:49.372Z,42.45
2018-10-17T06:39:15.436Z,42.79
2018-10-17T06:41:41.590Z,42.16
2018-10-17T06:44:07.783Z,41.44
2018-10-17T06:46:33.823Z,41.04
2018-10-17T06:48:59.900Z,41.22
2018-10-17T06:51:25.968Z,40.67
2018-10-17T06:53:52.127Z,39.97
2018-10-17T06:56:18.300Z,40.53
2018-10-17T06:58:44.388Z,39.88
2018-10-17T07:01:10.558Z,39.80
2018-10-17T07:03:36.611Z,39.15
2018-10-17T07:06:02.800Z,38.46
2018-10-17T07:08:28.949Z,38.79
2018-10-17T07:10:55.802Z,37.93
2018-10-17T07:15:54.388Z,38.13
2018-10-17T07:18:20.743Z,37.76
2018-10-17T07:20:46.810Z,37.38
2018-10-17T07:23:13.083Z,36.62
2018-10-17T07:25:39.236Z,37.10
2018-10-17T07:28:05.313Z,36.57
2018-10-17T07:30:31.575Z,36.49
2018-10-17T07:35:30.188Z,36.23
2018-10-17T07:37:57.361Z,35.79
2018-10-17T07:40:23.462Z,36.20
2018-10-17T07:42:49.678Z,36.06
2018-10-17T07:45:15.735Z,34.99
2018-10-17T07:47:41.849Z,35.08
2018-10-17T07:50:07.989Z,35.63
2018-10-17T07:52:35.080Z,35.04
2018-10-17T08:12:43.943Z,35.48
2018-10-17T08:15:10.077Z,34.95
2018-10-17T08:17:36.190Z,34.88
2018-10-17T08:20:02.325Z,34.41
2018-10-17T08:22:29.054Z,34.41
2018-10-17T08:24:57.365Z,33.81
2018-10-17T08:27:23.579Z,34.46
2018-10-17T08:29:49.723Z,33.95
2018-10-17T08:32:15.887Z,33.89
2018-10-17T08:34:42.076Z,33.35
2018-10-17T08:37:08.456Z,33.55
2018-10-17T08:39:34.393Z,34.33
2018-10-17T08:42:00.662Z,34.28
2018-10-17T08:44:26.808Z,33.22
2018-10-17T08:46:52.905Z,33.58
2018-10-17T08:49:19.098Z,33.27
2018-10-17T08:51:45.260Z,33.34
2018-10-17T08:54:11.445Z,33.47
2018-10-17T08:56:37.605Z,33.30
2018-10-17T08:59:03.766Z,33.55
2018-10-17T09:01:30.562Z,33.02
2018-10-17T09:03:57.502Z,33.14
2018-10-17T09:06:23.722Z,32.87
2018-10-17T09:08:50.130Z,33.22
2018-10-17T09:11:16.356Z,33.41
2018-10-17T09:46:30.211Z,33.53
2018-10-17T09:48:56.470Z,33.07
2018-10-17T09:51:23.605Z,33.02
2018-10-17T09:56:18.752Z,33.52
2018-10-17T09:58:44.939Z,33.34
2018-10-17T10:01:15.679Z,32.71
2018-10-17T10:03:44.569Z,33.00
2018-10-17T10:06:12.307Z,32.97
2018-10-17T10:08:38.502Z,32.80
2018-10-17T10:11:05.277Z,32.92
2018-10-17T10:16:12.106Z,33.07
2018-10-17T10:18:38.242Z,32.58
2018-10-17T10:21:04.361Z,32.97
2018-10-17T10:23:30.470Z,32.51
2018-10-17T10:25:56.527Z,32.72
2018-10-17T10:28:22.754Z,32.33
2018-10-17T10:30:48.723Z,32.37
2018-10-17T10:33:18.188Z,33.10
2018-10-17T10:35:44.352Z,32.42
2018-10-17T10:38:10.542Z,32.78
2018-10-17T10:40:36.654Z,32.98
2018-10-17T10:43:02.774Z,32.30
2018-10-17T10:45:28.973Z,32.92
2018-10-17T10:47:55.027Z,32.91
2018-10-17T10:50:21.133Z,32.49
2018-10-17T10:52:47.303Z,33.06
2018-10-17T10:55:13.555Z,32.65
2018-10-17T10:57:40.318Z,32.89
2018-10-17T11:00:06.506Z,33.08
2018-10-17T11:02:32.623Z,32.49
2018-10-17T11:05:00.881Z,32.20
2018-10-17T11:07:26.950Z,32.92
2018-10-17T11:09:53.066Z,32.99
2018-10-17T11:12:23.277Z,32.56
2018-10-17T11:14:49.567Z,32.86
2018-10-17T11:17:15.558Z,32.58
2018-10-17T11:19:41.638Z,33.15
2018-10-17T11:22:07.757Z,32.78
2018-10-17T11:24:33.838Z,32.66
2018-10-17T11:27:00.044Z,32.95
2018-10-17T11:29:26.153Z,32.22
2018-10-17T11:31:52.395Z,32.08
2018-10-17T11:34:18.451Z,32.35
2018-10-17T11:36:44.602Z,32.74
2018-10-17T11:39:10.774Z,32.32
2018-10-17T11:41:36.989Z,32.22
2018-10-17T11:44:03.065Z,32.38
2018-10-17T11:46:30.038Z,32.77
2018-10-17T11:48:56.150Z,32.79
2018-10-17T11:51:22.515Z,32.75
2018-10-17T11:53:48.591Z,32.63
2018-10-17T11:56:14.709Z,32.39
2018-10-17T11:58:42.038Z,31.93
2018-10-17T12:01:08.204Z,32.88
2018-10-17T12:03:35.250Z,32.27
2018-10-17T12:06:01.298Z,32.48
2018-10-17T12:08:27.377Z,31.92
2018-10-17T12:10:53.496Z,32.59
2018-10-17T12:13:19.614Z,32.02
2018-10-17T12:15:45.771Z,31.94
2018-10-17T12:18:11.914Z,32.76
2018-10-17T12:20:37.989Z,32.58
2018-10-17T12:23:04.173Z,32.78
2018-10-17T12:25:30.315Z,31.85
2018-10-17T12:27:56.576Z,32.82
2018-10-17T12:30:22.678Z,32.35
2018-10-17T12:40:23.263Z,32.41
2018-10-17T12:42:49.326Z,31.96
2018-10-17T12:45:15.612Z,32.39
2018-10-17T12:47:41.662Z,31.84
2018-10-17T12:50:07.814Z,32.03
2018-10-17T12:52:34.003Z,32.22
2018-10-17T12:55:00.119Z,32.88
2018-10-17T12:57:26.189Z,31.94
2018-10-17T12:59:52.293Z,31.94
2018-10-17T13:02:18.388Z,32.03
2018-10-17T13:04:44.542Z,32.59
2018-10-17T13:07:10.763Z,32.50
2018-10-17T13:09:36.923Z,32.17
2018-10-17T13:12:02.967Z,32.02
2018-10-17T13:14:29.042Z,31.95
2018-10-17T13:16:57.080Z,32.02
2018-10-17T13:19:23.173Z,32.22
2018-10-17T13:21:49.397Z,32.41
2018-10-17T13:24:15.443Z,31.83
2018-10-17T13:26:41.507Z,32.42
2018-10-17T13:29:07.678Z,31.87
2018-10-17T13:31:33.862Z,32.23
2018-10-17T13:34:00.063Z,32.79
2018-10-17T13:36:26.224Z,32.59
2018-10-17T14:04:05.119Z,32.82
2018-10-17T14:06:31.266Z,32.75
2018-10-17T14:08:58.066Z,33.08
2018-10-17T14:11:26.321Z,32.36
2018-10-17T14:13:52.486Z,32.85
2018-10-17T14:16:18.816Z,33.40
2018-10-17T14:18:45.052Z,32.74
2018-10-17T14:21:11.339Z,32.91
2018-10-17T14:23:37.687Z,33.10
2018-10-17T14:26:03.741Z,32.38
2018-10-17T14:28:29.860Z,32.51
2018-10-17T14:30:56.898Z,32.32
2018-10-17T14:33:23.262Z,32.72
2018-10-17T14:35:49.392Z,33.02
2018-10-17T14:38:15.544Z,32.90
2018-10-17T14:40:41.834Z,33.00
2018-10-17T14:43:07.863Z,32.66
2018-10-17T14:45:34.374Z,32.43
2018-10-17T14:48:00.559Z,32.49
2018-10-17T14:50:26.708Z,33.26
2018-10-17T14:52:52.859Z,32.68
2018-10-17T14:55:19.053Z,32.41
2018-10-17T14:57:45.237Z,33.03
2018-10-17T15:00:11.419Z,33.16
2018-10-17T15:02:37.517Z,32.93
2018-10-17T15:05:04.565Z,33.42
2018-10-17T15:07:31.562Z,32.61
2018-10-17T15:09:58.129Z,32.65
2018-10-17T15:12:24.299Z,32.71
2018-10-17T15:14:50.700Z,32.42
2018-10-17T15:17:16.825Z,32.74
2018-10-17T15:19:42.955Z,32.75
2018-10-17T15:22:09.749Z,33.04
2018-10-17T15:24:35.947Z,32.53
2018-10-17T15:27:02.970Z,33.38
2018-10-17T15:29:29.020Z,33.56
2018-10-17T15:31:55.238Z,32.72
2018-10-17T15:34:21.293Z,32.47
2018-10-17T15:36:47.359Z,32.80
2018-10-17T15:39:13.518Z,32.91
2018-10-17T15:41:39.587Z,33.52
2018-10-17T15:44:05.674Z,32.73
2018-10-17T15:46:31.742Z,33.60
2018-10-17T15:48:57.843Z,33.18
2018-10-17T15:51:23.895Z,32.66
2018-10-17T15:53:50.042Z,33.02
2018-10-17T15:56:16.190Z,33.90
2018-10-17T15:58:42.317Z,33.00
2018-10-17T16:01:08.546Z,33.36
2018-10-17T16:03:34.566Z,34.04
2018-10-17T16:06:00.644Z,33.96
2018-10-17T16:08:26.800Z,34.14
2018-10-17T16:10:52.872Z,33.83
2018-10-17T16:13:18.981Z,33.99
2018-10-17T16:15:45.207Z,34.55
2018-10-17T16:18:11.568Z,34.54
2018-10-17T16:20:37.831Z,34.79
2018-10-17T16:23:04.108Z,35.08
2018-10-17T16:25:30.114Z,35.00
2018-10-17T16:30:28.669Z,36.37
2018-10-17T16:32:54.793Z,36.85
2018-10-17T16:35:20.945Z,37.70
2018-10-17T16:37:47.086Z,37.64
2018-10-17T16:40:13.186Z,37.23
2018-10-17T16:42:39.400Z,37.57
2018-10-17T16:45:05.491Z,37.38
2018-10-17T16:47:31.679Z,36.36
2018-10-17T16:49:57.735Z,37.91
2018-10-17T16:52:23.834Z,38.30
2018-10-17T16:54:50.110Z,37.58
2018-10-17T16:57:16.306Z,37.58
2018-10-17T16:59:42.379Z,37.26
2018-10-17T17:02:08.448Z,37.09
2018-10-17T17:04:34.630Z,37.69
2018-10-17T17:07:01.483Z,37.92
2018-10-17T17:12:01.224Z,37.87
2018-10-17T17:14:27.454Z,38.95
2018-10-17T17:16:53.468Z,39.00
2018-10-17T17:21:51.939Z,38.79
2018-10-17T17:24:18.098Z,38.15
2018-10-17T17:26:44.917Z,38.23
2018-10-17T17:29:11.229Z,39.40
2018-10-17T17:31:37.509Z,39.31
2018-10-17T17:34:03.888Z,39.04
2018-10-17T17:36:30.819Z,39.35
2018-10-17T17:38:59.210Z,39.27
2018-10-17T17:41:28.248Z,38.62
2018-10-17T17:43:55.294Z,39.29
2018-10-17T17:46:25.672Z,38.95
2018-10-17T17:48:51.922Z,39.36
2018-10-17T17:51:18.083Z,39.91
2018-10-17T17:53:44.235Z,39.64
2018-10-17T17:56:10.312Z,40.16
2018-10-17T17:58:36.738Z,40.08
2018-10-17T18:01:02.631Z,40.42
2018-10-17T18:03:28.717Z,40.52
2018-10-17T18:05:54.932Z,40.27
2018-10-17T18:08:22.267Z,39.69
2018-10-17T18:10:48.347Z,40.57
2018-10-17T18:13:14.521Z,40.42
2018-10-17T18:15:40.647Z,40.21
2018-10-17T18:18:06.767Z,40.30
2018-10-17T18:20:32.887Z,40.22
2018-10-17T18:22:59.015Z,39.86
2018-10-17T18:25:26.055Z,40.37
2018-10-17T18:27:52.237Z,40.33
2018-10-17T18:30:18.234Z,40.63
2018-10-17T18:32:44.300Z,40.15
2018-10-17T18:40:13.666Z,40.39
2018-10-17T18:42:39.793Z,40.20
2018-10-17T18:45:05.845Z,40.66
2018-10-17T18:52:35.091Z,41.60
2018-10-17T18:55:01.265Z,42.37
2018-10-17T18:57:27.350Z,41.86
2018-10-17T18:59:53.478Z,41.43
2018-10-17T19:02:19.550Z,42.14
2018-10-17T19:04:45.775Z,41.91
2018-10-17T19:07:11.887Z,41.96
2018-10-17T19:09:38.007Z,41.12
2018-10-17T19:12:04.099Z,41.24
2018-10-17T19:14:30.177Z,41.48
2018-10-17T19:16:56.380Z,41.68
2018-10-17T19:19:22.508Z,41.67
2018-10-17T19:21:48.581Z,42.31
2018-10-17T19:24:14.710Z,41.96
2018-10-17T19:26:41.040Z,42.11
2018-10-17T19:29:07.169Z,42.30
2018-10-17T19:31:33.251Z,42.27
2018-10-17T19:33:59.419Z,42.43
2018-10-17T19:36:25.489Z,42.48
2018-10-17T20:11:38.320Z,42.48
2018-10-17T20:14:04.465Z,42.70
2018-10-17T20:16:31.728Z,42.21
2018-10-17T20:18:57.832Z,42.54
2018-10-17T20:21:23.917Z,41.86
2018-10-17T20:23:50.199Z,42.12
2018-10-17T20:26:17.299Z,42.00
2018-10-17T20:28:43.369Z,42.61
2018-10-17T20:31:09.544Z,42.58
2018-10-17T20:33:35.819Z,42.43
2018-10-17T20:36:06.966Z,41.73
2018-10-17T20:38:33.204Z,41.85
2018-10-17T20:40:59.376Z,42.41
2018-10-17T20:43:25.567Z,42.16
2018-10-17T20:45:51.620Z,42.13
2018-10-17T20:48:17.862Z,42.33
2018-10-17T20:50:44.007Z,42.72
2018-10-17T20:53:10.122Z,42.07
2018-10-17T20:55:36.315Z,42.64
2018-10-17T20:58:02.377Z,42.54
2018-10-17T21:00:29.046Z,43.04
2018-10-17T21:02:55.159Z,42.66
2018-10-17T21:05:21.337Z,42.67
2018-10-17T21:07:47.462Z,42.37
2018-10-17T21:10:13.607Z,43.29
2018-10-17T21:12:39.640Z,42.96
2018-10-17T21:15:06.366Z,42.46
2018-10-17T21:17:32.556Z,42.52
2018-10-17T21:19:58.690Z,42.67
2018-10-17T21:22:24.770Z,42.66
2018-10-17T21:24:50.861Z,42.71
2018-10-17T21:27:16.913Z,42.04
2018-10-17T21:29:43.013Z,42.24
2018-10-17T21:32:09.129Z,42.15
2018-10-17T21:34:35.238Z,42.60
2018-10-17T21:37:01.317Z,42.38
2018-10-17T21:39:27.416Z,42.03
2018-10-17T21:41:53.527Z,42.09
2018-10-17T21:44:19.584Z,43.29
2018-10-17T21:46:45.645Z,42.41
2018-10-17T21:49:11.768Z,42.42
2018-10-17T21:51:37.870Z,43.19
2018-10-17T21:54:04.032Z,43.13
2018-10-17T21:56:30.154Z,43.22
2018-10-17T21:58:56.242Z,43.01
2018-10-17T22:01:22.339Z,43.13
2018-10-17T22:03:48.435Z,43.23
2018-10-17T22:06:14.549Z,43.24
2018-10-17T22:08:40.711Z,43.78
2018-10-17T22:11:06.807Z,42.84
2018-10-17T22:13:32.905Z,43.45
2018-10-17T22:15:59.061Z,43.46
2018-10-17T22:18:25.867Z,43.30
2018-10-17T22:20:51.954Z,43.39
2018-10-17T22:23:18.052Z,43.51
2018-10-17T22:25:44.142Z,43.48
2018-10-17T22:28:10.284Z,43.26
2018-10-17T22:30:36.365Z,43.28
2018-10-17T22:33:02.437Z,44.06
2018-10-17T22:35:28.488Z,43.68
2018-10-17T22:37:54.604Z,43.40
2018-10-17T22:40:20.681Z,44.33
2018-10-17T22:42:46.757Z,43.49
2018-10-17T22:45:12.804Z,43.31
2018-10-17T22:47:38.836Z,43.44
2018-10-17T22:50:05.097Z,44.09
2018-10-17T22:52:31.114Z,43.46
2018-10-17T22:54:57.204Z,44.06
2018-10-17T22:57:23.246Z,43.73
2018-10-17T22:59:49.406Z,43.27
2018-10-17T23:02:15.553Z,43.90
2018-10-17T23:04:41.605Z,43.83
2018-10-17T23:07:07.815Z,43.72
2018-10-17T23:09:33.853Z,44.13
2018-10-17T23:11:59.954Z,44.31
2018-10-17T23:14:26.078Z,44.46
2018-10-17T23:16:52.216Z,44.37
2018-10-17T23:19:18.297Z,44.19
2018-10-17T23:21:44.362Z,44.53
2018-10-17T23:24:10.373Z,44.69
2018-10-17T23:26:36.429Z,44.59
2018-10-17T23:29:02.479Z,44.87
2018-10-17T23:31:28.592Z,44.34
2018-10-17T23:33:54.638Z,44.25
2018-10-17T23:36:20.713Z,43.81
2018-10-17T23:38:46.797Z,44.62
2018-10-17T23:41:12.865Z,44.31
2018-10-17T23:43:38.945Z,44.80
2018-10-17T23:46:05.052Z,43.93
2018-10-17T23:48:31.218Z,44.16
2018-10-17T23:50:57.302Z,44.01
2018-10-17T23:53:23.420Z,44.08
2018-10-17T23:55:49.529Z,44.49
2018-10-17T23:58:15.611Z,44.19
